sensor_id;sensor_type;location;lat;lon;timestamp;P1;durP1;ratioP1;P2;durP2;ratioP2
24163;SDS011;12319;49.204;8.116;2024-02-16T00:02:17;5.70;;;2.17;;
24163;SDS011;12319;49.204;8.116;2024-02-16T00:04:43;4.18;;;2.10;;
24163;SDS011;12319;49.204;8.116;2024-02-16T00:07:08;5.00;;;2.27;;
24163;SDS011;12319;49.204;8.116;2024-02-16T00:09:34;4.10;;;1.90;;
24163;SDS011;12319;49.204;8.116;2024-02-16T00:12:00;4.37;;;1.83;;
24163;SDS011;12319;49.204;8.116;2024-02-16T00:14:26;3.67;;;1.98;;
24163;SDS011;12319;49.204;8.116;2024-02-16T00:16:51;3.97;;;2.20;;
24163;SDS011;12319;49.204;8.116;2024-02-16T00:19:17;4.73;;;2.10;;
24163;SDS011;12319;49.204;8.116;2024-02-16T00:21:42;6.95;;;2.10;;
24163;SDS011;12319;49.204;8.116;2024-02-16T00:24:08;4.20;;;2.00;;
24163;SDS011;12319;49.204;8.116;2024-02-16T00:26:34;3.88;;;1.85;;
24163;SDS011;12319;49.204;8.116;2024-02-16T00:29:00;4.27;;;2.00;;
24163;SDS011;12319;49.204;8.116;2024-02-16T00:31:25;4.33;;;2.07;;
24163;SDS011;12319;49.204;8.116;2024-02-16T00:33:51;4.32;;;1.88;;
24163;SDS011;12319;49.204;8.116;2024-02-16T00:36:17;5.70;;;2.00;;
24163;SDS011;12319;49.204;8.116;2024-02-16T00:38:42;3.88;;;1.83;;
24163;SDS011;12319;49.204;8.116;2024-02-16T00:41:08;4.30;;;2.10;;
24163;SDS011;12319;49.204;8.116;2024-02-16T00:43:33;4.03;;;2.03;;
24163;SDS011;12319;49.204;8.116;2024-02-16T00:45:59;4.07;;;2.15;;
24163;SDS011;12319;49.204;8.116;2024-02-16T00:48:24;4.93;;;2.00;;
24163;SDS011;12319;49.204;8.116;2024-02-16T00:50:50;6.43;;;2.17;;
24163;SDS011;12319;49.204;8.116;2024-02-16T00:53:15;4.80;;;2.20;;
24163;SDS011;12319;49.204;8.116;2024-02-16T00:55:41;4.50;;;2.10;;
24163;SDS011;12319;49.204;8.116;2024-02-16T00:58:07;4.40;;;2.17;;
24163;SDS011;12319;49.204;8.116;2024-02-16T01:00:32;3.80;;;2.03;;
24163;SDS011;12319;49.204;8.116;2024-02-16T01:02:58;4.53;;;1.90;;
24163;SDS011;12319;49.204;8.116;2024-02-16T01:05:23;4.73;;;2.20;;
24163;SDS011;12319;49.204;8.116;2024-02-16T01:07:49;4.88;;;2.35;;
24163;SDS011;12319;49.204;8.116;2024-02-16T01:10:15;4.95;;;2.15;;
24163;SDS011;12319;49.204;8.116;2024-02-16T01:12:40;4.28;;;1.95;;
24163;SDS011;12319;49.204;8.116;2024-02-16T01:15:06;4.30;;;2.17;;
24163;SDS011;12319;49.204;8.116;2024-02-16T01:17:32;5.70;;;2.30;;
24163;SDS011;12319;49.204;8.116;2024-02-16T01:19:57;4.43;;;2.10;;
24163;SDS011;12319;49.204;8.116;2024-02-16T01:22:23;5.03;;;2.15;;
24163;SDS011;12319;49.204;8.116;2024-02-16T01:24:49;4.70;;;2.13;;
24163;SDS011;12319;49.204;8.116;2024-02-16T01:27:15;4.40;;;1.83;;
24163;SDS011;12319;49.204;8.116;2024-02-16T01:29:41;4.83;;;2.17;;
24163;SDS011;12319;49.204;8.116;2024-02-16T01:32:07;4.43;;;2.05;;
24163;SDS011;12319;49.204;8.116;2024-02-16T01:34:33;4.38;;;1.83;;
24163;SDS011;12319;49.204;8.116;2024-02-16T01:36:58;4.03;;;2.00;;
24163;SDS011;12319;49.204;8.116;2024-02-16T01:39:24;5.78;;;2.10;;
24163;SDS011;12319;49.204;8.116;2024-02-16T01:41:50;5.40;;;2.00;;
24163;SDS011;12319;49.204;8.116;2024-02-16T01:44:15;4.07;;;1.77;;
24163;SDS011;12319;49.204;8.116;2024-02-16T01:46:42;4.00;;;2.00;;
24163;SDS011;12319;49.204;8.116;2024-02-16T01:49:07;4.75;;;2.05;;
24163;SDS011;12319;49.204;8.116;2024-02-16T01:51:34;4.40;;;2.03;;
24163;SDS011;12319;49.204;8.116;2024-02-16T01:54:00;4.67;;;2.00;;
24163;SDS011;12319;49.204;8.116;2024-02-16T01:56:27;4.35;;;1.98;;
24163;SDS011;12319;49.204;8.116;2024-02-16T01:58:53;5.43;;;2.30;;
24163;SDS011;12319;49.204;8.116;2024-02-16T02:01:18;3.90;;;1.90;;
24163;SDS011;12319;49.204;8.116;2024-02-16T02:03:44;5.65;;;2.00;;
24163;SDS011;12319;49.204;8.116;2024-02-16T02:06:09;4.90;;;2.10;;
24163;SDS011;12319;49.204;8.116;2024-02-16T02:08:35;5.33;;;2.17;;
24163;SDS011;12319;49.204;8.116;2024-02-16T02:11:01;4.57;;;1.90;;
24163;SDS011;12319;49.204;8.116;2024-02-16T02:13:27;4.10;;;1.90;;
24163;SDS011;12319;49.204;8.116;2024-02-16T02:15:53;4.47;;;1.90;;
24163;SDS011;12319;49.204;8.116;2024-02-16T02:18:20;4.22;;;2.00;;
24163;SDS011;12319;49.204;8.116;2024-02-16T02:20:45;4.70;;;2.03;;
24163;SDS011;12319;49.204;8.116;2024-02-16T02:23:11;4.57;;;2.03;;
24163;SDS011;12319;49.204;8.116;2024-02-16T02:25:37;4.18;;;2.00;;
24163;SDS011;12319;49.204;8.116;2024-02-16T02:28:02;3.30;;;1.83;;
24163;SDS011;12319;49.204;8.116;2024-02-16T02:30:28;3.60;;;1.77;;
24163;SDS011;12319;49.204;8.116;2024-02-16T02:32:54;3.87;;;1.90;;
24163;SDS011;12319;49.204;8.116;2024-02-16T02:35:19;4.03;;;2.07;;
24163;SDS011;12319;49.204;8.116;2024-02-16T02:37:45;4.10;;;1.98;;
24163;SDS011;12319;49.204;8.116;2024-02-16T02:40:10;4.47;;;2.03;;
24163;SDS011;12319;49.204;8.116;2024-02-16T02:42:37;3.85;;;1.80;;
24163;SDS011;12319;49.204;8.116;2024-02-16T02:45:03;4.80;;;2.00;;
24163;SDS011;12319;49.204;8.116;2024-02-16T02:47:29;3.50;;;1.80;;
24163;SDS011;12319;49.204;8.116;2024-02-16T02:49:55;4.20;;;1.90;;
24163;SDS011;12319;49.204;8.116;2024-02-16T02:52:21;4.03;;;1.87;;
24163;SDS011;12319;49.204;8.116;2024-02-16T02:54:46;3.47;;;1.80;;
24163;SDS011;12319;49.204;8.116;2024-02-16T02:57:12;4.20;;;1.90;;
24163;SDS011;12319;49.204;8.116;2024-02-16T02:59:37;3.57;;;1.67;;
24163;SDS011;12319;49.204;8.116;2024-02-16T03:02:03;4.20;;;1.83;;
24163;SDS011;12319;49.204;8.116;2024-02-16T03:04:29;4.00;;;1.83;;
24163;SDS011;12319;49.204;8.116;2024-02-16T03:06:54;4.35;;;2.03;;
24163;SDS011;12319;49.204;8.116;2024-02-16T03:09:20;4.03;;;1.70;;
24163;SDS011;12319;49.204;8.116;2024-02-16T03:11:45;4.60;;;2.20;;
24163;SDS011;12319;49.204;8.116;2024-02-16T03:14:11;3.47;;;1.80;;
24163;SDS011;12319;49.204;8.116;2024-02-16T03:16:37;3.60;;;1.80;;
24163;SDS011;12319;49.204;8.116;2024-02-16T03:19:04;4.40;;;2.05;;
24163;SDS011;12319;49.204;8.116;2024-02-16T03:21:31;4.65;;;2.00;;
24163;SDS011;12319;49.204;8.116;2024-02-16T03:23:57;3.97;;;1.83;;
24163;SDS011;12319;49.204;8.116;2024-02-16T03:26:23;4.20;;;2.00;;
24163;SDS011;12319;49.204;8.116;2024-02-16T03:28:48;4.77;;;2.00;;
24163;SDS011;12319;49.204;8.116;2024-02-16T03:31:16;4.53;;;2.17;;
24163;SDS011;12319;49.204;8.116;2024-02-16T03:33:42;5.43;;;2.20;;
24163;SDS011;12319;49.204;8.116;2024-02-16T03:36:08;5.33;;;2.00;;
24163;SDS011;12319;49.204;8.116;2024-02-16T03:38:34;4.03;;;1.80;;
24163;SDS011;12319;49.204;8.116;2024-02-16T03:40:59;3.67;;;1.93;;
24163;SDS011;12319;49.204;8.116;2024-02-16T03:43:25;3.80;;;1.93;;
24163;SDS011;12319;49.204;8.116;2024-02-16T03:45:51;4.40;;;2.15;;
24163;SDS011;12319;49.204;8.116;2024-02-16T03:48:16;4.68;;;2.25;;
24163;SDS011;12319;49.204;8.116;2024-02-16T03:50:42;4.20;;;2.03;;
24163;SDS011;12319;49.204;8.116;2024-02-16T03:53:07;5.73;;;2.13;;
24163;SDS011;12319;49.204;8.116;2024-02-16T03:55:33;4.13;;;2.10;;
24163;SDS011;12319;49.204;8.116;2024-02-16T03:58:01;4.70;;;2.15;;
24163;SDS011;12319;49.204;8.116;2024-02-16T04:00:27;4.38;;;2.20;;
24163;SDS011;12319;49.204;8.116;2024-02-16T04:02:53;4.63;;;2.10;;
24163;SDS011;12319;49.204;8.116;2024-02-16T04:05:18;4.25;;;2.10;;
24163;SDS011;12319;49.204;8.116;2024-02-16T04:07:44;4.27;;;2.20;;
24163;SDS011;12319;49.204;8.116;2024-02-16T04:10:09;3.53;;;1.90;;
24163;SDS011;12319;49.204;8.116;2024-02-16T04:12:35;5.15;;;2.17;;
24163;SDS011;12319;49.204;8.116;2024-02-16T04:15:01;3.97;;;2.00;;
24163;SDS011;12319;49.204;8.116;2024-02-16T04:17:27;4.93;;;2.13;;
24163;SDS011;12319;49.204;8.116;2024-02-16T04:19:52;4.90;;;2.17;;
24163;SDS011;12319;49.204;8.116;2024-02-16T04:22:18;4.82;;;2.00;;
24163;SDS011;12319;49.204;8.116;2024-02-16T04:24:43;3.30;;;1.73;;
24163;SDS011;12319;49.204;8.116;2024-02-16T04:27:09;3.80;;;1.67;;
24163;SDS011;12319;49.204;8.116;2024-02-16T04:29:34;3.87;;;1.87;;
24163;SDS011;12319;49.204;8.116;2024-02-16T04:32:00;4.28;;;2.22;;
24163;SDS011;12319;49.204;8.116;2024-02-16T04:34:25;5.00;;;2.13;;
24163;SDS011;12319;49.204;8.116;2024-02-16T04:36:51;4.17;;;2.10;;
24163;SDS011;12319;49.204;8.116;2024-02-16T04:39:16;4.07;;;2.10;;
24163;SDS011;12319;49.204;8.116;2024-02-16T04:41:42;3.33;;;1.73;;
24163;SDS011;12319;49.204;8.116;2024-02-16T04:44:07;4.30;;;2.00;;
24163;SDS011;12319;49.204;8.116;2024-02-16T04:46:33;4.72;;;1.95;;
24163;SDS011;12319;49.204;8.116;2024-02-16T04:48:58;3.90;;;2.00;;
24163;SDS011;12319;49.204;8.116;2024-02-16T04:51:24;4.43;;;1.87;;
24163;SDS011;12319;49.204;8.116;2024-02-16T04:53:49;3.92;;;2.00;;
24163;SDS011;12319;49.204;8.116;2024-02-16T04:56:15;3.23;;;1.80;;
24163;SDS011;12319;49.204;8.116;2024-02-16T04:58:41;4.20;;;1.77;;
24163;SDS011;12319;49.204;8.116;2024-02-16T05:01:07;3.80;;;1.92;;
24163;SDS011;12319;49.204;8.116;2024-02-16T05:03:33;4.28;;;2.00;;
24163;SDS011;12319;49.204;8.116;2024-02-16T05:05:59;4.43;;;1.93;;
24163;SDS011;12319;49.204;8.116;2024-02-16T05:08:25;3.65;;;1.88;;
24163;SDS011;12319;49.204;8.116;2024-02-16T05:10:51;4.67;;;1.83;;
24163;SDS011;12319;49.204;8.116;2024-02-16T05:13:17;4.22;;;2.00;;
24163;SDS011;12319;49.204;8.116;2024-02-16T05:15:42;3.60;;;1.77;;
24163;SDS011;12319;49.204;8.116;2024-02-16T05:18:08;3.63;;;1.70;;
24163;SDS011;12319;49.204;8.116;2024-02-16T05:20:37;4.75;;;1.90;;
24163;SDS011;12319;49.204;8.116;2024-02-16T05:23:03;4.70;;;2.10;;
24163;SDS011;12319;49.204;8.116;2024-02-16T05:25:28;6.25;;;2.08;;
24163;SDS011;12319;49.204;8.116;2024-02-16T05:27:54;4.13;;;2.13;;
24163;SDS011;12319;49.204;8.116;2024-02-16T05:30:20;4.22;;;2.13;;
24163;SDS011;12319;49.204;8.116;2024-02-16T05:32:46;6.67;;;1.87;;
24163;SDS011;12319;49.204;8.116;2024-02-16T05:35:12;4.55;;;2.00;;
24163;SDS011;12319;49.204;8.116;2024-02-16T05:37:46;4.43;;;2.00;;
24163;SDS011;12319;49.204;8.116;2024-02-16T05:40:14;5.27;;;2.17;;
24163;SDS011;12319;49.204;8.116;2024-02-16T05:42:52;5.40;;;2.08;;
24163;SDS011;12319;49.204;8.116;2024-02-16T05:45:18;4.55;;;1.98;;
24163;SDS011;12319;49.204;8.116;2024-02-16T05:47:46;4.38;;;1.98;;
24163;SDS011;12319;49.204;8.116;2024-02-16T05:50:12;4.57;;;2.30;;
24163;SDS011;12319;49.204;8.116;2024-02-16T05:52:38;4.40;;;1.93;;
24163;SDS011;12319;49.204;8.116;2024-02-16T05:55:05;4.07;;;2.00;;
24163;SDS011;12319;49.204;8.116;2024-02-16T05:57:32;5.78;;;2.10;;
24163;SDS011;12319;49.204;8.116;2024-02-16T05:59:57;4.07;;;2.10;;
24163;SDS011;12319;49.204;8.116;2024-02-16T06:02:23;5.30;;;2.17;;
24163;SDS011;12319;49.204;8.116;2024-02-16T06:04:52;5.47;;;1.85;;
24163;SDS011;12319;49.204;8.116;2024-02-16T06:07:18;3.80;;;2.08;;
24163;SDS011;12319;49.204;8.116;2024-02-16T06:09:43;3.80;;;1.90;;
24163;SDS011;12319;49.204;8.116;2024-02-16T06:12:09;5.80;;;1.95;;
24163;SDS011;12319;49.204;8.116;2024-02-16T06:14:35;4.67;;;2.20;;
24163;SDS011;12319;49.204;8.116;2024-02-16T06:17:22;4.38;;;1.95;;
24163;SDS011;12319;49.204;8.116;2024-02-16T06:19:47;3.45;;;1.85;;
24163;SDS011;12319;49.204;8.116;2024-02-16T06:22:13;4.63;;;2.17;;
24163;SDS011;12319;49.204;8.116;2024-02-16T06:24:39;4.55;;;2.20;;
24163;SDS011;12319;49.204;8.116;2024-02-16T06:27:05;4.13;;;2.07;;
24163;SDS011;12319;49.204;8.116;2024-02-16T06:29:33;4.95;;;2.17;;
24163;SDS011;12319;49.204;8.116;2024-02-16T06:31:59;8.27;;;2.40;;
24163;SDS011;12319;49.204;8.116;2024-02-16T06:34:24;6.00;;;2.60;;
24163;SDS011;12319;49.204;8.116;2024-02-16T06:36:50;6.90;;;2.67;;
24163;SDS011;12319;49.204;8.116;2024-02-16T06:39:16;7.05;;;3.05;;
24163;SDS011;12319;49.204;8.116;2024-02-16T06:41:43;5.55;;;2.20;;
24163;SDS011;12319;49.204;8.116;2024-02-16T06:44:10;4.87;;;2.00;;
24163;SDS011;12319;49.204;8.116;2024-02-16T06:46:36;6.18;;;2.47;;
24163;SDS011;12319;49.204;8.116;2024-02-16T06:49:02;5.03;;;2.40;;
24163;SDS011;12319;49.204;8.116;2024-02-16T06:51:27;4.43;;;2.08;;
24163;SDS011;12319;49.204;8.116;2024-02-16T06:53:53;4.63;;;2.27;;
24163;SDS011;12319;49.204;8.116;2024-02-16T06:56:20;7.88;;;2.17;;
24163;SDS011;12319;49.204;8.116;2024-02-16T06:58:46;4.32;;;2.30;;
24163;SDS011;12319;49.204;8.116;2024-02-16T07:01:12;4.75;;;2.10;;
24163;SDS011;12319;49.204;8.116;2024-02-16T07:03:38;5.97;;;1.90;;
24163;SDS011;12319;49.204;8.116;2024-02-16T07:06:04;4.40;;;2.00;;
24163;SDS011;12319;49.204;8.116;2024-02-16T07:08:34;4.93;;;2.20;;
24163;SDS011;12319;49.204;8.116;2024-02-16T07:11:03;4.80;;;2.10;;
24163;SDS011;12319;49.204;8.116;2024-02-16T07:13:29;3.97;;;1.87;;
24163;SDS011;12319;49.204;8.116;2024-02-16T07:15:56;4.38;;;2.30;;
24163;SDS011;12319;49.204;8.116;2024-02-16T07:18:22;4.30;;;2.03;;
24163;SDS011;12319;49.204;8.116;2024-02-16T07:20:47;3.80;;;1.90;;
24163;SDS011;12319;49.204;8.116;2024-02-16T07:23:13;3.40;;;1.88;;
24163;SDS011;12319;49.204;8.116;2024-02-16T07:25:40;4.40;;;2.10;;
24163;SDS011;12319;49.204;8.116;2024-02-16T07:28:06;4.85;;;2.00;;
24163;SDS011;12319;49.204;8.116;2024-02-16T07:30:33;4.97;;;1.90;;
24163;SDS011;12319;49.204;8.116;2024-02-16T07:32:59;4.35;;;1.90;;
24163;SDS011;12319;49.204;8.116;2024-02-16T07:35:25;4.33;;;2.00;;
24163;SDS011;12319;49.204;8.116;2024-02-16T07:37:50;4.20;;;2.17;;
24163;SDS011;12319;49.204;8.116;2024-02-16T07:40:22;5.18;;;1.88;;
24163;SDS011;12319;49.204;8.116;2024-02-16T07:42:47;6.32;;;2.13;;
24163;SDS011;12319;49.204;8.116;2024-02-16T07:45:13;5.00;;;2.20;;
24163;SDS011;12319;49.204;8.116;2024-02-16T07:47:40;5.65;;;2.47;;
24163;SDS011;12319;49.204;8.116;2024-02-16T07:50:06;4.43;;;2.20;;
24163;SDS011;12319;49.204;8.116;2024-02-16T07:52:32;4.65;;;2.10;;
24163;SDS011;12319;49.204;8.116;2024-02-16T07:54:58;4.82;;;2.30;;
24163;SDS011;12319;49.204;8.116;2024-02-16T07:57:24;4.63;;;2.10;;
24163;SDS011;12319;49.204;8.116;2024-02-16T07:59:49;4.55;;;2.20;;
24163;SDS011;12319;49.204;8.116;2024-02-16T08:02:15;8.85;;;2.45;;
24163;SDS011;12319;49.204;8.116;2024-02-16T08:04:42;5.97;;;2.67;;
24163;SDS011;12319;49.204;8.116;2024-02-16T08:07:11;7.18;;;2.55;;
24163;SDS011;12319;49.204;8.116;2024-02-16T08:09:37;5.17;;;2.60;;
24163;SDS011;12319;49.204;8.116;2024-02-16T08:12:02;6.10;;;2.90;;
24163;SDS011;12319;49.204;8.116;2024-02-16T08:14:30;5.85;;;2.70;;
24163;SDS011;12319;49.204;8.116;2024-02-16T08:16:57;6.03;;;2.90;;
24163;SDS011;12319;49.204;8.116;2024-02-16T08:19:23;9.43;;;2.77;;
24163;SDS011;12319;49.204;8.116;2024-02-16T08:21:48;5.03;;;2.47;;
24163;SDS011;12319;49.204;8.116;2024-02-16T08:24:14;6.13;;;2.30;;
24163;SDS011;12319;49.204;8.116;2024-02-16T08:26:39;5.77;;;2.63;;
24163;SDS011;12319;49.204;8.116;2024-02-16T08:29:05;5.55;;;2.55;;
24163;SDS011;12319;49.204;8.116;2024-02-16T08:31:30;6.20;;;2.60;;
24163;SDS011;12319;49.204;8.116;2024-02-16T08:33:56;7.32;;;3.17;;
24163;SDS011;12319;49.204;8.116;2024-02-16T08:36:22;6.07;;;2.80;;
24163;SDS011;12319;49.204;8.116;2024-02-16T08:38:53;5.43;;;2.60;;
24163;SDS011;12319;49.204;8.116;2024-02-16T08:41:19;7.63;;;3.00;;
24163;SDS011;12319;49.204;8.116;2024-02-16T08:43:44;6.05;;;2.42;;
24163;SDS011;12319;49.204;8.116;2024-02-16T08:46:10;5.03;;;2.50;;
24163;SDS011;12319;49.204;8.116;2024-02-16T08:48:35;4.80;;;2.40;;
24163;SDS011;12319;49.204;8.116;2024-02-16T08:51:01;5.32;;;2.25;;
24163;SDS011;12319;49.204;8.116;2024-02-16T08:53:27;5.57;;;2.55;;
24163;SDS011;12319;49.204;8.116;2024-02-16T08:55:52;5.30;;;2.03;;
24163;SDS011;12319;49.204;8.116;2024-02-16T08:58:18;5.70;;;2.20;;
24163;SDS011;12319;49.204;8.116;2024-02-16T09:00:43;5.00;;;2.33;;
24163;SDS011;12319;49.204;8.116;2024-02-16T09:03:09;5.10;;;2.45;;
24163;SDS011;12319;49.204;8.116;2024-02-16T09:05:35;4.97;;;2.40;;
24163;SDS011;12319;49.204;8.116;2024-02-16T09:08:01;4.55;;;2.55;;
24163;SDS011;12319;49.204;8.116;2024-02-16T09:10:28;4.72;;;2.50;;
24163;SDS011;12319;49.204;8.116;2024-02-16T09:12:53;5.50;;;2.50;;
24163;SDS011;12319;49.204;8.116;2024-02-16T09:15:19;5.63;;;2.60;;
24163;SDS011;12319;49.204;8.116;2024-02-16T09:17:44;5.53;;;2.50;;
24163;SDS011;12319;49.204;8.116;2024-02-16T09:20:10;4.83;;;2.37;;
24163;SDS011;12319;49.204;8.116;2024-02-16T09:22:36;5.78;;;2.88;;
24163;SDS011;12319;49.204;8.116;2024-02-16T09:25:03;6.75;;;2.50;;
24163;SDS011;12319;49.204;8.116;2024-02-16T09:27:29;5.47;;;2.40;;
24163;SDS011;12319;49.204;8.116;2024-02-16T09:29:55;4.70;;;2.10;;
24163;SDS011;12319;49.204;8.116;2024-02-16T09:32:20;5.80;;;2.10;;
24163;SDS011;12319;49.204;8.116;2024-02-16T09:34:47;4.18;;;1.80;;
24163;SDS011;12319;49.204;8.116;2024-02-16T09:37:12;5.17;;;2.00;;
24163;SDS011;12319;49.204;8.116;2024-02-16T09:39:38;5.60;;;2.30;;
24163;SDS011;12319;49.204;8.116;2024-02-16T09:42:04;8.60;;;2.30;;
24163;SDS011;12319;49.204;8.116;2024-02-16T09:44:29;5.60;;;2.50;;
24163;SDS011;12319;49.204;8.116;2024-02-16T09:46:55;7.18;;;2.45;;
24163;SDS011;12319;49.204;8.116;2024-02-16T09:49:25;5.13;;;2.20;;
24163;SDS011;12319;49.204;8.116;2024-02-16T09:51:51;5.00;;;2.43;;
24163;SDS011;12319;49.204;8.116;2024-02-16T09:54:19;5.82;;;2.30;;
24163;SDS011;12319;49.204;8.116;2024-02-16T09:56:45;4.97;;;2.40;;
24163;SDS011;12319;49.204;8.116;2024-02-16T09:59:11;6.57;;;2.92;;
24163;SDS011;12319;49.204;8.116;2024-02-16T10:01:37;5.97;;;2.63;;
24163;SDS011;12319;49.204;8.116;2024-02-16T10:04:06;5.43;;;2.60;;
24163;SDS011;12319;49.204;8.116;2024-02-16T10:06:47;5.10;;;2.42;;
24163;SDS011;12319;49.204;8.116;2024-02-16T10:09:22;5.37;;;2.23;;
24163;SDS011;12319;49.204;8.116;2024-02-16T10:11:48;7.03;;;2.63;;
24163;SDS011;12319;49.204;8.116;2024-02-16T10:14:14;5.85;;;2.70;;
24163;SDS011;12319;49.204;8.116;2024-02-16T10:16:40;5.20;;;2.40;;
24163;SDS011;12319;49.204;8.116;2024-02-16T10:19:06;6.83;;;2.53;;
24163;SDS011;12319;49.204;8.116;2024-02-16T10:21:32;5.60;;;2.60;;
24163;SDS011;12319;49.204;8.116;2024-02-16T10:24:02;5.93;;;2.40;;
24163;SDS011;12319;49.204;8.116;2024-02-16T10:26:32;5.53;;;2.60;;
24163;SDS011;12319;49.204;8.116;2024-02-16T10:29:02;5.20;;;2.40;;
24163;SDS011;12319;49.204;8.116;2024-02-16T10:31:28;7.07;;;2.07;;
24163;SDS011;12319;49.204;8.116;2024-02-16T10:33:59;5.03;;;2.15;;
24163;SDS011;12319;49.204;8.116;2024-02-16T10:36:35;7.63;;;2.30;;
24163;SDS011;12319;49.204;8.116;2024-02-16T10:39:02;5.57;;;2.42;;
24163;SDS011;12319;49.204;8.116;2024-02-16T10:41:30;3.63;;;1.83;;
24163;SDS011;12319;49.204;8.116;2024-02-16T10:43:59;5.37;;;1.97;;
24163;SDS011;12319;49.204;8.116;2024-02-16T10:46:29;4.30;;;1.80;;
24163;SDS011;12319;49.204;8.116;2024-02-16T10:48:55;3.85;;;1.90;;
24163;SDS011;12319;49.204;8.116;2024-02-16T10:51:25;4.80;;;1.77;;
24163;SDS011;12319;49.204;8.116;2024-02-16T10:53:56;2.50;;;1.50;;
24163;SDS011;12319;49.204;8.116;2024-02-16T10:56:34;3.97;;;1.77;;
24163;SDS011;12319;49.204;8.116;2024-02-16T10:59:02;5.68;;;1.80;;
24163;SDS011;12319;49.204;8.116;2024-02-16T11:01:31;4.07;;;1.70;;
24163;SDS011;12319;49.204;8.116;2024-02-16T11:04:01;4.63;;;1.70;;
24163;SDS011;12319;49.204;8.116;2024-02-16T11:06:28;3.80;;;1.70;;
24163;SDS011;12319;49.204;8.116;2024-02-16T11:08:54;3.28;;;1.50;;
24163;SDS011;12319;49.204;8.116;2024-02-16T11:11:26;3.35;;;1.50;;
24163;SDS011;12319;49.204;8.116;2024-02-16T11:13:54;3.27;;;1.70;;
24163;SDS011;12319;49.204;8.116;2024-02-16T11:16:21;3.20;;;1.60;;
24163;SDS011;12319;49.204;8.116;2024-02-16T11:18:47;4.30;;;1.80;;
24163;SDS011;12319;49.204;8.116;2024-02-16T11:21:17;3.88;;;1.65;;
24163;SDS011;12319;49.204;8.116;2024-02-16T11:23:42;5.45;;;1.60;;
24163;SDS011;12319;49.204;8.116;2024-02-16T11:26:10;4.13;;;1.60;;
24163;SDS011;12319;49.204;8.116;2024-02-16T11:28:37;4.73;;;1.70;;
24163;SDS011;12319;49.204;8.116;2024-02-16T11:31:05;5.47;;;2.33;;
24163;SDS011;12319;49.204;8.116;2024-02-16T11:33:32;3.85;;;1.60;;
24163;SDS011;12319;49.204;8.116;2024-02-16T11:36:01;3.70;;;1.50;;
24163;SDS011;12319;49.204;8.116;2024-02-16T11:38:30;5.18;;;1.50;;
24163;SDS011;12319;49.204;8.116;2024-02-16T11:40:58;6.45;;;1.60;;
24163;SDS011;12319;49.204;8.116;2024-02-16T11:43:29;3.53;;;1.50;;
24163;SDS011;12319;49.204;8.116;2024-02-16T11:45:55;6.35;;;1.90;;
24163;SDS011;12319;49.204;8.116;2024-02-16T11:48:25;3.47;;;1.55;;
24163;SDS011;12319;49.204;8.116;2024-02-16T11:50:58;3.93;;;1.60;;
24163;SDS011;12319;49.204;8.116;2024-02-16T11:53:28;3.60;;;1.70;;
24163;SDS011;12319;49.204;8.116;2024-02-16T11:55:54;3.20;;;1.45;;
24163;SDS011;12319;49.204;8.116;2024-02-16T11:58:20;4.73;;;1.80;;
24163;SDS011;12319;49.204;8.116;2024-02-16T12:00:46;3.75;;;1.60;;
24163;SDS011;12319;49.204;8.116;2024-02-16T12:03:22;3.33;;;1.60;;
24163;SDS011;12319;49.204;8.116;2024-02-16T12:05:59;3.90;;;1.67;;
24163;SDS011;12319;49.204;8.116;2024-02-16T12:08:31;4.55;;;1.77;;
24163;SDS011;12319;49.204;8.116;2024-02-16T12:10:58;3.43;;;1.50;;
24163;SDS011;12319;49.204;8.116;2024-02-16T12:13:24;3.25;;;1.40;;
24163;SDS011;12319;49.204;8.116;2024-02-16T12:15:50;5.77;;;1.73;;
24163;SDS011;12319;49.204;8.116;2024-02-16T12:18:20;4.63;;;1.70;;
24163;SDS011;12319;49.204;8.116;2024-02-16T12:20:57;4.97;;;1.60;;
24163;SDS011;12319;49.204;8.116;2024-02-16T12:23:26;4.15;;;1.60;;
24163;SDS011;12319;49.204;8.116;2024-02-16T12:25:52;6.23;;;1.70;;
24163;SDS011;12319;49.204;8.116;2024-02-16T12:28:18;5.88;;;1.88;;
24163;SDS011;12319;49.204;8.116;2024-02-16T12:30:45;4.30;;;1.75;;
24163;SDS011;12319;49.204;8.116;2024-02-16T12:33:13;3.33;;;1.80;;
24163;SDS011;12319;49.204;8.116;2024-02-16T12:35:38;3.67;;;1.52;;
24163;SDS011;12319;49.204;8.116;2024-02-16T12:38:04;3.00;;;1.70;;
24163;SDS011;12319;49.204;8.116;2024-02-16T12:40:30;5.05;;;1.60;;
24163;SDS011;12319;49.204;8.116;2024-02-16T12:42:55;3.07;;;1.50;;
24163;SDS011;12319;49.204;8.116;2024-02-16T12:45:21;3.10;;;1.35;;
24163;SDS011;12319;49.204;8.116;2024-02-16T12:47:46;3.63;;;1.40;;
24163;SDS011;12319;49.204;8.116;2024-02-16T12:50:12;5.70;;;1.90;;
24163;SDS011;12319;49.204;8.116;2024-02-16T12:52:37;2.60;;;1.40;;
24163;SDS011;12319;49.204;8.116;2024-02-16T12:55:05;3.37;;;1.40;;
24163;SDS011;12319;49.204;8.116;2024-02-16T12:57:31;3.67;;;1.70;;
24163;SDS011;12319;49.204;8.116;2024-02-16T12:59:57;3.43;;;1.43;;
24163;SDS011;12319;49.204;8.116;2024-02-16T13:02:22;2.60;;;1.30;;
24163;SDS011;12319;49.204;8.116;2024-02-16T13:04:48;4.03;;;1.70;;
24163;SDS011;12319;49.204;8.116;2024-02-16T13:07:13;4.35;;;1.40;;
24163;SDS011;12319;49.204;8.116;2024-02-16T13:09:39;5.57;;;1.97;;
24163;SDS011;12319;49.204;8.116;2024-02-16T13:12:05;3.30;;;1.47;;
24163;SDS011;12319;49.204;8.116;2024-02-16T13:14:30;4.60;;;1.50;;
24163;SDS011;12319;49.204;8.116;2024-02-16T13:16:56;4.63;;;1.80;;
24163;SDS011;12319;49.204;8.116;2024-02-16T13:19:21;3.95;;;1.55;;
24163;SDS011;12319;49.204;8.116;2024-02-16T13:21:47;3.87;;;1.60;;
24163;SDS011;12319;49.204;8.116;2024-02-16T13:24:12;3.17;;;1.50;;
24163;SDS011;12319;49.204;8.116;2024-02-16T13:26:38;3.85;;;1.40;;
24163;SDS011;12319;49.204;8.116;2024-02-16T13:29:04;4.43;;;1.60;;
24163;SDS011;12319;49.204;8.116;2024-02-16T13:31:29;3.00;;;1.50;;
24163;SDS011;12319;49.204;8.116;2024-02-16T13:33:57;3.83;;;1.65;;
24163;SDS011;12319;49.204;8.116;2024-02-16T13:36:22;5.00;;;1.80;;
24163;SDS011;12319;49.204;8.116;2024-02-16T13:38:47;3.53;;;1.60;;
24163;SDS011;12319;49.204;8.116;2024-02-16T13:41:13;3.53;;;1.47;;
24163;SDS011;12319;49.204;8.116;2024-02-16T13:43:39;3.65;;;1.40;;
24163;SDS011;12319;49.204;8.116;2024-02-16T13:46:05;4.40;;;1.60;;
24163;SDS011;12319;49.204;8.116;2024-02-16T13:48:30;3.70;;;1.60;;
24163;SDS011;12319;49.204;8.116;2024-02-16T13:50:56;6.47;;;1.80;;
24163;SDS011;12319;49.204;8.116;2024-02-16T13:53:22;2.67;;;1.50;;
24163;SDS011;12319;49.204;8.116;2024-02-16T13:55:50;3.72;;;1.60;;
24163;SDS011;12319;49.204;8.116;2024-02-16T13:58:16;3.65;;;1.50;;
24163;SDS011;12319;49.204;8.116;2024-02-16T14:00:41;2.77;;;1.33;;
24163;SDS011;12319;49.204;8.116;2024-02-16T14:03:08;3.30;;;1.47;;
24163;SDS011;12319;49.204;8.116;2024-02-16T14:05:38;3.33;;;1.50;;
24163;SDS011;12319;49.204;8.116;2024-02-16T14:08:04;3.85;;;1.85;;
24163;SDS011;12319;49.204;8.116;2024-02-16T14:10:30;2.92;;;1.40;;
24163;SDS011;12319;49.204;8.116;2024-02-16T14:12:57;2.70;;;1.40;;
24163;SDS011;12319;49.204;8.116;2024-02-16T14:15:23;4.32;;;1.45;;
24163;SDS011;12319;49.204;8.116;2024-02-16T14:17:48;3.67;;;1.70;;
24163;SDS011;12319;49.204;8.116;2024-02-16T14:20:14;3.30;;;1.43;;
24163;SDS011;12319;49.204;8.116;2024-02-16T14:22:40;3.25;;;1.65;;
24163;SDS011;12319;49.204;8.116;2024-02-16T14:25:05;5.27;;;1.63;;
24163;SDS011;12319;49.204;8.116;2024-02-16T14:27:31;5.38;;;1.42;;
24163;SDS011;12319;49.204;8.116;2024-02-16T14:29:57;3.03;;;1.50;;
24163;SDS011;12319;49.204;8.116;2024-02-16T14:32:23;3.85;;;1.35;;
24163;SDS011;12319;49.204;8.116;2024-02-16T14:34:48;3.60;;;1.80;;
24163;SDS011;12319;49.204;8.116;2024-02-16T14:37:14;3.97;;;1.53;;
24163;SDS011;12319;49.204;8.116;2024-02-16T14:39:40;3.40;;;1.55;;
24163;SDS011;12319;49.204;8.116;2024-02-16T14:42:05;4.57;;;1.70;;
24163;SDS011;12319;49.204;8.116;2024-02-16T14:44:31;4.60;;;1.80;;